메인 페이지
METAR-TAF:

METAR-TAF

공항 :

Hutchinson, 캔자스, 미국

위도: 38-04-05N, 경도: 097-51-38W, 고도: 470m

현재 날씨관측

예보는 43분 전, 18:52시(UTC)에 발표되었습니다.
남동10kt
온도 19°C
습도 28%
기압 1012 hPa
시정: 16.1km
맑음

METAR: KHUT 191852Z 13010KT 10SM CLR 19/00 A2989 RMK AO2 SLP111 T01890000

시각: 13:35 (19:35 UTC)

예보

예보는 2 시간 10분 전, 17:25시(UTC)에 발표되었습니다.
예보 대상 시간: 19일 18시부터 20일 18시까지 (UTC)
남남동10kt
시정: 10km
고도 20000ft 상공 구름 조금
20일 1200시부터 (UTC)
남남동14kt, 순간 최대 풍속 22kt
시정: 10km
고도 3000ft 상공 구름 보통
고도 12000ft 상공 구름 많음
20일 1400시부터 (UTC)
16kt, 순간 최대 풍속 28kt
시정: 10km
고도 2500ft 상공 흐림
20일 1700시부터 (UTC)
20kt, 순간 최대 풍속 29kt
시정: 10km
고도 2000ft 상공 흐림

TAF: KHUT 191725Z 1918/2018 15010KT P6SM FEW200 FM201200 16014G22KT P6SM SCT030 BKN120 WS020/19045KT FM201400 17016G28KT P6SM OVC025 WS020/19045KT FM201700 18020G29KT P6SM OVC020

4,000개 이상의 공항 관측 자료 및 예보 (METAR 및 TAF 보고).

지도상에서 검색 가능한 기상관측소가 노란 점과 빨간 점으로 표시되어 있습니다.

기상관측소 명을 보려면 표시 위로 마우스를 이동하세요.

날씨 관측과 예보를 보려면 클릭하세요.

지도 변경 : 확대하려면 엑스 표시가 있는 녹색 버튼, 축소하려면 빼기 표시가 있는 녹색 버튼, 다음 페이지의 지도를 보려면 녹색 화살표를 클릭하세요.


METAR-TAF: